Time;durP1;ratioP1;P1;durP2;ratioP2;P2;SDS_P1;SDS_P2;PMS_P1;PMS_P2;Temp;Humidity;BMP_temperature;BMP_pressure;BME280_temperature;BME280_humidity;BME280_pressure;Samples;Min_cycle;Max_cycle;Signal;HPM_P1;HPM_P2
2022/06/15 00:00:00;;;;;;;2.95;1.23;;;17.50;49.70;;;;;;5071735;28;20051;-52
2022/06/15 00:02:26;;;;;;;1.10;1.00;;;17.50;49.70;;;;;;5072080;28;20703;-52
2022/06/15 00:04:53;;;;;;;1.90;1.17;;;17.40;49.60;;;;;;5066691;28;20048;-49
2022/06/15 00:07:23;;;;;;;4.22;1.08;;;17.40;49.70;;;;;;5071607;28;20044;-53
2022/06/15 00:09:50;;;;;;;1.92;1.05;;;17.30;49.70;;;;;;5069783;28;20036;-48
2022/06/15 00:12:19;;;;;;;2.83;1.15;;;17.30;49.80;;;;;;5070110;28;20124;-52
2022/06/15 00:14:48;;;;;;;1.70;1.60;;;17.30;49.80;;;;;;5067750;28;20082;-53
2022/06/15 00:17:14;;;;;;;2.28;1.08;;;17.30;49.80;;;;;;5071868;28;20043;-52
2022/06/15 00:19:43;;;;;;;2.75;1.30;;;17.20;49.70;;;;;;5070860;28;20040;-51
2022/06/15 00:22:12;;;;;;;1.00;1.00;;;17.20;49.80;;;;;;5071834;28;20098;-52
2022/06/15 00:24:39;;;;;;;1.73;1.20;;;17.10;49.90;;;;;;5066604;28;20048;-53
2022/06/15 00:27:14;;;;;;;1.40;1.10;;;17.10;49.90;;;;;;5067599;28;20093;-53
2022/06/15 00:29:51;;;;;;;3.33;1.20;;;17.10;49.90;;;;;;5070941;28;20459;-53
2022/06/15 00:32:20;;;;;;;2.53;1.48;;;17.00;50.50;;;;;;5066740;28;20037;-51
2022/06/15 00:34:50;;;;;;;2.38;1.27;;;17.00;50.10;;;;;;5056304;28;20048;-53
2022/06/15 00:37:17;;;;;;;2.95;1.50;;;17.00;50.00;;;;;;5061711;28;20051;-52
2022/06/15 00:39:46;;;;;;;2.92;1.20;;;16.90;50.00;;;;;;5069321;28;20040;-53
2022/06/15 00:42:19;;;;;;;2.15;1.02;;;16.90;50.20;;;;;;5070108;28;20205;-52
2022/06/15 00:44:51;;;;;;;1.02;0.90;;;16.90;50.20;;;;;;5069451;28;20470;-52
2022/06/15 00:47:27;;;;;;;2.08;1.00;;;16.80;50.10;;;;;;5065099;28;20488;-50
2022/06/15 00:50:03;;;;;;;1.25;1.00;;;16.80;50.60;;;;;;5050166;28;20041;-52
2022/06/15 00:52:52;;;;;;;2.35;1.05;;;16.70;50.80;;;;;;5067713;28;20045;-51
2022/06/15 00:55:24;;;;;;;1.55;1.45;;;16.70;51.30;;;;;;5059549;28;20051;-51
2022/06/15 00:57:56;;;;;;;2.33;1.42;;;16.60;50.80;;;;;;5070358;28;20044;-52
2022/06/15 01:00:24;;;;;;;1.13;1.02;;;16.60;50.70;;;;;;5053755;28;20047;-51
2022/06/15 01:02:53;;;;;;;1.88;1.52;;;16.50;50.70;;;;;;5071772;28;20037;-52
2022/06/15 01:05:28;;;;;;;3.80;1.40;;;16.50;50.60;;;;;;5068009;28;20048;-50
2022/06/15 01:07:55;;;;;;;1.60;1.27;;;16.50;51.00;;;;;;5069398;28;20106;-48
2022/06/15 01:10:59;;;;;;;3.35;1.95;;;16.50;50.80;;;;;;5055498;28;20052;-50
2022/06/15 01:14:04;;;;;;;4.20;1.27;;;16.40;51.70;;;;;;5059194;28;20036;-49
2022/06/15 01:16:56;;;;;;;1.38;1.27;;;16.40;51.60;;;;;;5066352;28;20057;-52
2022/06/15 01:19:44;;;;;;;3.92;1.30;;;16.30;51.60;;;;;;5070091;28;20396;-50
2022/06/15 01:22:27;;;;;;;1.20;1.02;;;16.30;50.80;;;;;;5070001;28;20040;-52
2022/06/15 01:25:18;;;;;;;2.55;1.48;;;16.30;50.70;;;;;;5069019;28;20040;-51
2022/06/15 01:28:12;;;;;;;3.03;1.20;;;16.20;51.60;;;;;;5054133;28;20044;-52
2022/06/15 01:30:44;;;;;;;2.42;1.42;;;16.20;51.50;;;;;;5065584;28;20033;-49
2022/06/15 01:33:19;;;;;;;1.73;1.63;;;16.20;51.20;;;;;;5060173;28;20045;-52
2022/06/15 01:35:54;;;;;;;1.73;1.63;;;16.10;51.40;;;;;;5069796;28;20047;-53
2022/06/15 01:38:31;;;;;;;3.83;1.55;;;16.10;51.30;;;;;;5064386;28;20120;-51
2022/06/15 01:41:23;;;;;;;2.53;1.50;;;16.10;51.70;;;;;;5068602;28;20102;-53
2022/06/15 01:44:05;;;;;;;3.35;1.52;;;16.00;51.80;;;;;;5070716;28;20135;-53
2022/06/15 01:46:34;;;;;;;2.13;1.40;;;16.00;51.90;;;;;;5047044;28;20535;-50
2022/06/15 01:49:05;;;;;;;1.30;1.20;;;15.90;51.30;;;;;;5066371;28;20563;-51
2022/06/15 01:51:36;;;;;;;2.40;1.17;;;15.90;51.40;;;;;;5059772;28;20052;-49
2022/06/15 01:54:16;;;;;;;2.45;1.20;;;15.90;51.50;;;;;;5070751;28;20037;-51
2022/06/15 01:56:48;;;;;;;1.10;1.00;;;15.80;52.10;;;;;;5065729;28;20102;-50
2022/06/15 01:59:29;;;;;;;2.00;1.85;;;15.80;52.00;;;;;;5065861;28;20048;-50
2022/06/15 02:02:25;;;;;;;2.92;1.33;;;15.80;52.20;;;;;;5062604;28;20075;-49
2022/06/15 02:05:20;;;;;;;1.77;1.30;;;15.80;52.50;;;;;;5067899;28;20050;-55
2022/06/15 02:08:05;;;;;;;0.98;0.98;;;15.80;53.20;;;;;;5054268;28;20048;-52
2022/06/15 02:10:43;;;;;;;1.50;1.17;;;15.70;52.50;;;;;;5067870;28;20057;-53
2022/06/15 02:13:18;;;;;;;4.20;1.73;;;15.70;51.80;;;;;;5069054;28;20503;-53
2022/06/15 02:15:51;;;;;;;3.45;1.52;;;15.70;51.90;;;;;;5056245;28;20045;-52
2022/06/15 02:18:24;;;;;;;2.30;1.30;;;15.60;51.90;;;;;;5060323;28;20496;-53
2022/06/15 02:21:00;;;;;;;3.08;1.70;;;15.60;52.00;;;;;;5068335;28;20605;-53
2022/06/15 02:23:32;;;;;;;1.48;1.38;;;15.60;52.30;;;;;;5069057;28;20044;-53
2022/06/15 02:25:59;;;;;;;2.17;1.50;;;15.50;52.20;;;;;;5046111;28;20045;-51
2022/06/15 02:28:31;;;;;;;1.30;1.20;;;15.50;52.00;;;;;;5058879;28;20079;-51
2022/06/15 02:30:58;;;;;;;1.70;1.40;;;15.50;52.30;;;;;;5068627;28;20048;-53
2022/06/15 02:33:33;;;;;;;1.98;1.33;;;15.50;52.10;;;;;;5046081;28;20458;-52
2022/06/15 02:36:05;;;;;;;1.60;1.33;;;15.40;52.30;;;;;;5052589;28;20423;-52
2022/06/15 02:38:32;;;;;;;2.05;1.85;;;15.40;52.20;;;;;;5044037;28;20075;-52
2022/06/15 02:41:01;;;;;;;1.88;1.08;;;15.40;52.30;;;;;;5050324;28;20067;-52
2022/06/15 02:43:30;;;;;;;1.65;1.55;;;15.30;52.30;;;;;;5044195;28;20078;-53
2022/06/15 02:46:01;;;;;;;2.00;1.30;;;15.30;52.60;;;;;;5041780;28;20048;-52
2022/06/15 02:48:34;;;;;;;1.90;1.55;;;15.30;52.70;;;;;;5045785;28;20397;-51
2022/06/15 02:51:17;;;;;;;2.60;1.80;;;15.30;52.60;;;;;;5049957;28;20043;-49
2022/06/15 02:53:58;;;;;;;2.38;1.60;;;15.30;53.40;;;;;;5040994;28;20099;-52
2022/06/15 02:56:31;;;;;;;1.45;1.40;;;15.20;52.80;;;;;;5058194;28;20372;-52
2022/06/15 02:59:06;;;;;;;2.45;1.67;;;15.30;52.60;;;;;;5064966;28;20040;-51
2022/06/15 03:01:43;;;;;;;1.85;1.58;;;15.20;52.70;;;;;;5049683;28;20048;-50
2022/06/15 03:04:10;;;;;;;2.30;1.63;;;15.20;52.70;;;;;;5056720;28;20534;-51
2022/06/15 03:06:41;;;;;;;3.90;2.65;;;15.10;52.60;;;;;;5051832;28;20418;-48
2022/06/15 03:09:13;;;;;;;1.80;1.27;;;15.10;52.70;;;;;;5052607;28;20540;-52
2022/06/15 03:11:45;;;;;;;2.53;1.75;;;15.10;52.90;;;;;;5047352;28;20048;-49
2022/06/15 03:14:25;;;;;;;3.28;2.22;;;15.10;52.90;;;;;;5060683;28;20052;-52
2022/06/15 03:16:53;;;;;;;4.53;1.83;;;15.00;52.90;;;;;;5067997;28;20401;-50
2022/06/15 03:19:25;;;;;;;3.22;1.77;;;15.00;52.90;;;;;;5068794;28;20070;-52
2022/06/15 03:22:01;;;;;;;2.33;1.80;;;15.20;53.40;;;;;;5049986;28;20053;-49
2022/06/15 03:24:31;;;;;;;;;;;15.00;53.10;;;;;;5057965;28;20055;-48
2022/06/15 03:26:58;;;;;;;1.98;1.52;;;15.00;52.80;;;;;;5062830;28;19926;-53
2022/06/15 03:29:31;;;;;;;4.63;2.50;;;15.00;52.50;;;;;;5056260;28;20041;-53
2022/06/15 03:32:08;;;;;;;3.47;2.53;;;15.00;52.60;;;;;;5057033;28;20052;-48
2022/06/15 03:34:45;;;;;;;2.80;1.95;;;14.90;52.80;;;;;;5060303;28;20044;-51
2022/06/15 03:37:19;;;;;;;2.40;1.90;;;14.90;52.90;;;;;;5061608;28;20559;-49
2022/06/15 03:39:50;;;;;;;4.20;2.20;;;14.90;53.00;;;;;;5051879;28;20132;-50
2022/06/15 03:42:23;;;;;;;4.97;2.00;;;14.90;53.10;;;;;;5051104;28;20045;-52
2022/06/15 03:44:55;;;;;;;2.75;2.50;;;14.80;53.30;;;;;;5064012;28;20133;-49
2022/06/15 03:47:32;;;;;;;2.95;1.95;;;14.80;53.40;;;;;;5066094;28;20036;-50
2022/06/15 03:50:00;;;;;;;3.28;2.67;;;14.80;53.40;;;;;;5052908;28;20044;-48
2022/06/15 03:52:30;;;;;;;2.85;2.28;;;14.80;53.60;;;;;;5053476;28;20064;-51
2022/06/15 03:55:01;;;;;;;2.42;2.22;;;14.80;53.80;;;;;;5070657;28;20566;-52
2022/06/15 03:57:32;;;;;;;4.30;2.40;;;14.80;54.10;;;;;;5053919;28;20047;-52
2022/06/15 04:00:07;;;;;;;4.20;2.35;;;14.80;54.70;;;;;;5052601;28;20087;-51
2022/06/15 04:02:50;;;;;;;4.05;2.65;;;14.80;54.40;;;;;;5070394;28;20711;-53
2022/06/15 04:05:33;;;;;;;2.88;2.13;;;14.80;54.40;;;;;;5051544;28;20033;-53
2022/06/15 04:10:49;;;;;;;3.78;2.47;;;14.80;54.60;;;;;;5053492;28;20040;-49
2022/06/15 04:13:15;;;;;;;3.08;2.05;;;14.80;54.50;;;;;;5054703;28;20064;-53
2022/06/15 04:15:43;;;;;;;3.58;2.40;;;14.80;54.70;;;;;;5053609;28;20048;-49
2022/06/15 04:18:12;;;;;;;4.28;2.20;;;14.90;55.00;;;;;;5042786;28;20040;-52
2022/06/15 04:20:43;;;;;;;6.47;2.40;;;14.90;55.60;;;;;;5062380;28;20486;-51
2022/06/15 04:23:25;;;;;;;3.92;2.80;;;14.90;55.20;;;;;;5068883;28;20045;-52
2022/06/15 04:25:58;;;;;;;3.00;2.45;;;14.90;55.20;;;;;;5122414;22;20045;-50
2022/06/15 04:28:44;;;;;;;4.13;2.90;;;14.90;55.80;;;;;;5054285;28;20059;-50
2022/06/15 04:31:16;;;;;;;4.40;2.33;;;15.00;55.60;;;;;;5052687;28;20098;-50
2022/06/15 04:33:43;;;;;;;4.10;2.78;;;15.00;55.80;;;;;;5053398;28;20420;-49
2022/06/15 04:36:13;;;;;;;3.83;2.72;;;15.00;56.10;;;;;;5062904;28;20289;-50
2022/06/15 04:38:43;;;;;;;;;;;15.10;56.50;;;;;;5062532;28;20033;-49
2022/06/15 04:41:11;;;;;;;4.43;3.08;;;15.20;56.10;;;;;;5056557;28;19924;-53
2022/06/15 04:43:38;;;;;;;3.17;2.78;;;15.20;55.80;;;;;;5054628;28;20101;-45
2022/06/15 04:46:12;;;;;;;4.75;3.17;;;15.30;56.40;;;;;;5049695;28;20052;-45
2022/06/15 04:48:41;;;;;;;4.07;3.50;;;15.30;56.60;;;;;;5061888;28;20128;-46
2022/06/15 04:51:17;;;;;;;6.75;3.20;;;15.30;56.80;;;;;;5052069;28;20044;-45
2022/06/15 04:53:48;;;;;;;4.03;3.10;;;15.40;57.80;;;;;;5051360;28;20045;-46
2022/06/15 04:56:16;;;;;;;5.85;3.20;;;15.40;57.40;;;;;;5055057;28;20056;-47
2022/06/15 04:58:46;;;;;;;4.25;3.42;;;15.50;57.70;;;;;;5060077;28;20083;-45
2022/06/15 05:01:15;;;;;;;6.03;3.75;;;15.50;57.80;;;;;;5068624;28;20139;-50
2022/06/15 05:03:43;;;;;;;5.45;3.63;;;15.60;58.10;;;;;;5048102;28;20056;-49
2022/06/15 05:06:30;;;;;;;3.95;3.30;;;15.70;58.20;;;;;;5058344;28;20143;-46
2022/06/15 05:08:57;;;;;;;6.28;3.28;;;15.80;59.60;;;;;;5044656;28;20048;-46
2022/06/15 05:11:27;;;;;;;6.20;4.30;;;15.80;58.20;;;;;;5051068;28;20135;-44
2022/06/15 05:13:54;;;;;;;5.55;4.45;;;15.90;58.60;;;;;;5058023;28;20051;-49
2022/06/15 05:16:23;;;;;;;7.75;4.65;;;15.90;58.70;;;;;;5060468;28;20097;-47
2022/06/15 05:18:52;;;;;;;4.95;4.35;;;16.00;59.50;;;;;;5058610;28;20128;-48
2022/06/15 05:21:27;;;;;;;6.30;3.78;;;16.10;59.10;;;;;;5048767;28;20040;-48
2022/06/15 05:23:54;;;;;;;5.22;3.60;;;16.20;59.30;;;;;;5050986;28;20048;-45
2022/06/15 05:26:46;;;;;;;7.13;5.03;;;16.20;59.20;;;;;;5054090;28;20126;-45
2022/06/15 05:29:13;;;;;;;7.95;4.75;;;16.30;58.90;;;;;;5051286;28;20423;-47
2022/06/15 05:31:43;;;;;;;6.97;4.78;;;16.40;58.90;;;;;;5047210;28;20060;-46
2022/06/15 05:34:12;;;;;;;11.70;5.40;;;16.50;59.10;;;;;;5054611;28;20044;-46
2022/06/15 05:36:39;;;;;;;9.85;5.20;;;16.60;58.80;;;;;;5056506;28;20053;-47
2022/06/15 05:39:06;;;;;;;10.57;4.70;;;16.70;59.20;;;;;;5069161;28;20044;-46
2022/06/15 05:41:38;;;;;;;9.15;4.72;;;16.70;59.20;;;;;;5065219;28;20109;-48
2022/06/15 05:44:18;;;;;;;9.40;4.95;;;16.80;58.80;;;;;;5051172;28;20179;-47
2022/06/15 05:46:48;;;;;;;8.40;5.63;;;16.90;58.50;;;;;;5047648;28;20059;-47
2022/06/15 05:49:25;;;;;;;6.20;4.03;;;17.00;58.50;;;;;;5047795;28;20432;-46
2022/06/15 05:51:54;;;;;;;7.40;4.80;;;17.10;59.20;;;;;;5033901;28;20052;-47
2022/06/15 05:54:22;;;;;;;7.93;5.35;;;17.20;58.40;;;;;;5058853;28;20530;-48
2022/06/15 05:56:48;;;;;;;7.43;4.50;;;17.30;58.30;;;;;;5067117;28;20040;-46
2022/06/15 05:59:15;;;;;;;8.43;5.40;;;17.30;59.00;;;;;;5067953;28;20389;-45
2022/06/15 06:01:42;;;;;;;9.73;5.28;;;17.40;58.30;;;;;;5064512;28;20048;-45
2022/06/15 06:04:17;;;;;;;9.07;5.15;;;17.50;58.50;;;;;;5068131;28;20056;-47
2022/06/15 06:06:44;;;;;;;9.82;5.90;;;17.60;58.80;;;;;;5063418;28;20162;-46
2022/06/15 06:09:11;;;;;;;10.30;5.28;;;17.60;58.10;;;;;;5067907;28;20087;-45
2022/06/15 06:11:38;;;;;;;8.05;6.05;;;17.70;58.00;;;;;;5069161;28;20569;-47
2022/06/15 06:14:05;;;;;;;9.55;5.53;;;17.80;58.00;;;;;;5069742;28;20036;-45
2022/06/15 06:16:32;;;;;;;9.10;5.65;;;17.80;57.80;;;;;;5065831;28;20075;-46
2022/06/15 06:18:59;;;;;;;8.07;6.13;;;17.90;57.80;;;;;;5070087;28;20047;-46
2022/06/15 06:21:26;;;;;;;8.68;5.63;;;17.90;57.70;;;;;;5070438;28;20045;-46
2022/06/15 06:23:52;;;;;;;10.77;5.10;;;18.00;57.50;;;;;;5071175;28;20462;-45
2022/06/15 06:26:26;;;;;;;8.48;6.05;;;18.10;57.60;;;;;;5066853;28;20052;-47
2022/06/15 06:28:53;;;;;;;9.18;5.47;;;18.10;57.70;;;;;;5068119;28;20048;-46
2022/06/15 06:31:20;;;;;;;8.35;6.35;;;18.20;57.40;;;;;;5070339;28;20557;-46
2022/06/15 06:33:49;;;;;;;9.55;6.30;;;18.20;57.40;;;;;;5070482;28;20090;-46
2022/06/15 06:36:24;;;;;;;10.80;6.15;;;18.30;57.20;;;;;;5069496;28;20102;-46
2022/06/15 06:38:51;;;;;;;8.60;5.75;;;18.40;57.10;;;;;;5065254;28;20037;-45
2022/06/15 06:41:20;;;;;;;9.63;5.95;;;18.40;56.90;;;;;;5069978;28;20079;-47
2022/06/15 06:43:48;;;;;;;10.52;6.50;;;18.40;56.60;;;;;;5070522;28;20051;-46
2022/06/15 06:46:16;;;;;;;9.50;5.82;;;18.50;56.40;;;;;;5069100;28;20385;-46
2022/06/15 06:48:43;;;;;;;7.60;5.72;;;18.60;56.50;;;;;;5062552;28;20546;-46
2022/06/15 06:51:10;;;;;;;9.85;5.95;;;18.60;56.50;;;;;;5070437;28;20032;-49
2022/06/15 06:53:37;;;;;;;11.98;6.07;;;18.70;56.50;;;;;;5050326;28;20075;-49
2022/06/15 06:56:06;;;;;;;10.98;6.85;;;18.70;56.50;;;;;;5060133;28;20094;-46
2022/06/15 06:58:33;;;;;;;9.93;6.22;;;18.80;56.60;;;;;;5070119;28;20075;-46
2022/06/15 07:01:00;;;;;;;10.68;6.70;;;18.80;56.20;;;;;;5069860;28;20032;-49
2022/06/15 07:03:28;;;;;;;12.27;6.53;;;18.90;56.60;;;;;;5068500;28;20044;-47
2022/06/15 07:06:04;;;;;;;10.50;6.47;;;19.00;56.30;;;;;;5066183;28;20052;-46
2022/06/15 07:08:31;;;;;;;14.93;6.20;;;19.00;56.80;;;;;;5070355;28;20052;-46
2022/06/15 07:10:58;;;;;;;12.50;6.47;;;19.10;56.40;;;;;;5069541;28;20048;-45
2022/06/15 07:13:25;;;;;;;11.07;6.03;;;19.10;56.50;;;;;;5070429;28;20048;-45
2022/06/15 07:15:52;;;;;;;12.73;5.95;;;19.10;56.50;;;;;;5062339;28;20044;-46
2022/06/15 07:18:19;;;;;;;11.80;5.85;;;19.20;56.10;;;;;;5069913;28;20503;-45
2022/06/15 07:20:46;;;;;;;9.70;6.05;;;19.30;56.10;;;;;;5074059;28;20032;-46
2022/06/15 07:23:12;;;;;;;11.38;6.47;;;19.30;55.80;;;;;;5069070;28;20044;-45
2022/06/15 07:25:39;;;;;;;12.45;6.45;;;19.40;56.10;;;;;;5068179;28;20032;-44
2022/06/15 07:28:06;;;;;;;10.50;5.88;;;19.40;56.30;;;;;;5069924;28;20044;-47
2022/06/15 07:30:33;;;;;;;10.55;5.78;;;19.50;56.30;;;;;;5072560;28;20045;-45
2022/06/15 07:32:59;;;;;;;11.90;6.57;;;19.60;56.10;;;;;;5073925;28;20086;-44
2022/06/15 07:35:30;;;;;;;12.25;6.13;;;19.60;56.00;;;;;;5066465;28;20037;-45
2022/06/15 07:37:57;;;;;;;9.80;5.70;;;19.70;56.30;;;;;;5064290;28;20106;-47
2022/06/15 07:40:44;;;;;;;9.23;5.85;;;19.70;56.00;;;;;;5064717;28;20103;-49
2022/06/15 07:43:12;;;;;;;9.35;6.05;;;19.80;55.80;;;;;;5069923;28;20033;-44
2022/06/15 07:45:39;;;;;;;10.77;5.60;;;19.90;56.20;;;;;;5072286;28;20462;-50
2022/06/15 07:50:51;;;;;;;6.82;5.90;;;20.00;55.70;;;;;;5073518;28;20083;-47
2022/06/15 07:53:20;;;;;;;7.47;6.07;;;20.00;55.50;;;;;;5051901;28;20044;-48
2022/06/15 07:55:48;;;;;;;8.98;5.35;;;20.10;56.00;;;;;;5068179;28;20048;-47
2022/06/15 07:58:16;;;;;;;10.63;5.63;;;20.20;55.00;;;;;;5073449;28;20082;-46
2022/06/15 08:00:45;;;;;;;11.35;5.85;;;20.20;55.40;;;;;;5072580;28;20048;-46
2022/06/15 08:03:12;;;;;;;20.50;8.10;;;20.30;55.40;;;;;;5068497;28;20094;-45
2022/06/15 08:05:46;;;;;;;9.55;6.05;;;20.40;55.20;;;;;;5063312;28;20045;-46
2022/06/15 08:08:18;;;;;;;7.60;5.40;;;20.40;55.30;;;;;;5070317;28;20090;-48
2022/06/15 08:10:45;;;;;;;7.75;4.90;;;20.50;54.60;;;;;;5067445;28;20057;-46
2022/06/15 08:13:13;;;;;;;9.38;5.30;;;20.50;54.60;;;;;;5069732;28;20044;-45
2022/06/15 08:15:41;;;;;;;7.70;4.55;;;20.60;54.30;;;;;;5071989;28;20036;-45
2022/06/15 08:18:13;;;;;;;9.88;4.38;;;20.70;54.80;;;;;;5055911;28;20140;-46
2022/06/15 08:20:52;;;;;;;6.65;3.83;;;20.80;53.80;;;;;;5056843;28;20500;-48
2022/06/15 08:23:22;;;;;;;6.85;4.60;;;20.90;54.20;;;;;;5072277;28;20052;-47
2022/06/15 08:25:52;;;;;;;5.78;4.05;;;20.90;54.10;;;;;;5071733;28;20056;-48
2022/06/15 08:28:22;;;;;;;6.55;4.05;;;21.00;53.70;;;;;;5072969;28;20044;-48
2022/06/15 08:30:52;;;;;;;;;;;21.10;53.50;;;;;;5068833;28;20094;-46
2022/06/15 08:33:19;;;;;;;7.18;3.97;;;21.10;53.00;;;;;;5072752;28;19958;-49
2022/06/15 08:35:47;;;;;;;4.70;3.88;;;21.20;52.80;;;;;;5071653;28;20049;-48
2022/06/15 08:38:19;;;;;;;6.50;4.18;;;21.30;52.50;;;;;;5049291;28;20041;-47
2022/06/15 08:40:57;;;;;;;4.40;4.00;;;21.30;52.50;;;;;;5064590;28;20094;-47
2022/06/15 08:43:32;;;;;;;3.90;2.95;;;21.40;52.30;;;;;;5062747;28;20287;-47
2022/06/15 08:46:34;;;;;;;4.32;2.95;;;21.50;52.50;;;;;;5071812;28;20044;-47
2022/06/15 08:49:38;;;;;;;6.67;3.83;;;21.50;52.50;;;;;;5051328;28;20512;-47
2022/06/15 08:52:14;;;;;;;6.93;3.38;;;21.60;51.70;;;;;;5072438;28;20048;-48
2022/06/15 08:54:48;;;;;;;6.32;4.05;;;21.70;52.60;;;;;;5067318;28;20060;-47
2022/06/15 08:57:25;;;;;;;3.10;2.78;;;21.70;51.70;;;;;;5071830;28;20094;-48
2022/06/15 09:00:02;;;;;;;6.47;3.00;;;21.80;51.90;;;;;;5069909;28;20515;-47
2022/06/15 09:02:54;;;;;;;3.53;2.55;;;21.90;51.40;;;;;;5071674;28;20512;-46
2022/06/15 09:06:00;;;;;;;5.97;2.65;;;22.00;51.00;;;;;;5062867;28;20053;-48
2022/06/15 09:08:51;;;;;;;8.07;2.63;;;22.10;50.80;;;;;;5071190;28;20121;-47
2022/06/15 09:11:28;;;;;;;4.07;2.55;;;22.20;50.90;;;;;;5065341;28;20049;-47
2022/06/15 09:14:13;;;;;;;5.68;3.03;;;22.30;51.00;;;;;;5067402;28;20048;-47
2022/06/15 09:16:52;;;;;;;4.07;2.90;;;22.30;50.90;;;;;;5059717;28;20044;-46
2022/06/15 09:19:45;;;;;;;5.97;2.53;;;22.40;50.10;;;;;;5063412;28;20048;-48
2022/06/15 09:22:17;;;;;;;5.53;3.20;;;22.50;50.40;;;;;;5067251;28;20053;-50
2022/06/15 09:24:52;;;;;;;6.05;2.50;;;22.50;49.80;;;;;;5070457;28;20102;-47
2022/06/15 09:27:25;;;;;;;3.83;2.50;;;22.60;49.90;;;;;;5071348;28;20110;-49
2022/06/15 09:29:58;;;;;;;6.38;2.97;;;22.70;49.30;;;;;;5062023;28;20098;-51
2022/06/15 09:32:31;;;;;;;5.75;3.75;;;22.80;49.30;;;;;;5069854;28;20033;-49
2022/06/15 09:35:04;;;;;;;;;;;22.80;49.40;;;;;;5067303;28;20045;-49
2022/06/15 09:37:35;;;;;;;5.55;2.75;;;22.90;49.10;;;;;;5067530;28;19935;-48
2022/06/15 09:40:04;;;;;;;7.40;2.58;;;23.00;48.10;;;;;;5071397;28;20045;-46
2022/06/15 09:42:59;;;;;;;5.53;2.70;;;23.00;48.00;;;;;;5070984;28;20488;-51
2022/06/15 09:45:51;;;;;;;5.32;3.15;;;23.10;48.60;;;;;;5064797;28;20632;-50
2022/06/15 09:48:36;;;;;;;;;;;23.20;47.90;;;;;;5071925;28;20125;-47
2022/06/15 09:51:28;;;;;;;5.45;2.75;;;23.30;48.00;;;;;;5070935;28;20298;-49
2022/06/15 09:54:17;;;;;;;6.22;3.42;;;23.30;47.30;;;;;;5066743;28;20040;-46
2022/06/15 09:56:44;;;;;;;8.43;3.30;;;23.30;47.00;;;;;;5064900;28;20169;-47
2022/06/15 09:59:14;;;;;;;6.63;2.80;;;23.40;47.10;;;;;;5068551;28;20072;-47
2022/06/15 10:01:45;;;;;;;5.35;2.80;;;23.40;46.70;;;;;;5048278;28;20045;-48
2022/06/15 10:04:20;;;;;;;2.90;2.45;;;23.50;46.40;;;;;;5049724;28;20420;-50
2022/06/15 10:07:12;;;;;;;6.55;3.00;;;23.40;45.80;;;;;;5066947;28;20147;-47
2022/06/15 10:09:47;;;;;;;4.22;3.00;;;23.70;46.40;;;;;;5056668;28;20590;-45
2022/06/15 10:15:15;;;;;;;6.68;3.40;;;23.70;46.90;;;;;;5058300;28;20110;-49
2022/06/15 10:17:48;;;;;;;8.25;4.70;;;23.80;46.90;;;;;;5068635;28;20683;-47
2022/06/15 10:20:24;;;;;;;;;;;23.90;46.10;;;;;;5068873;28;20070;-45
2022/06/15 10:22:54;;;;;;;4.13;3.63;;;24.00;46.60;;;;;;5061798;28;19960;-46
2022/06/15 10:25:22;;;;;;;7.30;3.85;;;24.10;46.60;;;;;;5066126;28;20071;-47
2022/06/15 10:27:51;;;;;;;3.45;2.50;;;24.10;46.20;;;;;;5091247;22;20480;-54
2022/06/15 10:30:23;;;;;;;5.72;2.75;;;24.20;45.60;;;;;;5067984;28;20459;-51
2022/06/15 10:33:19;;;;;;;6.70;3.67;;;24.20;45.10;;;;;;5045063;28;20091;-50
2022/06/15 10:35:56;;;;;;;5.40;2.95;;;24.30;46.20;;;;;;5058085;28;20071;-51
2022/06/15 10:38:26;;;;;;;5.75;3.60;;;24.30;46.00;;;;;;5067430;28;20078;-51
2022/06/15 10:43:48;;;;;;;6.55;3.38;;;24.50;46.60;;;;;;5064268;28;20078;-51
2022/06/15 10:46:16;;;;;;;6.00;3.33;;;24.50;46.20;;;;;;5067532;28;20046;-51
2022/06/15 10:48:47;;;;;;;8.70;3.30;;;24.60;46.70;;;;;;5069225;28;20053;-55
2022/06/15 10:51:38;;;;;;;7.18;3.55;;;24.70;46.90;;;;;;5061937;28;20086;-49
2022/06/15 10:54:17;;;;;;;5.03;3.03;;;24.80;46.70;;;;;;5069089;28;20079;-54
2022/06/15 11:02:39;;;;;;;11.90;4.32;;;25.00;46.60;;;;;;5067303;28;20048;-52
2022/06/15 11:05:17;;;;;;;8.70;4.63;;;25.10;45.00;;;;;;5064499;28;20048;-49
2022/06/15 11:07:59;;;;;;;7.18;4.03;;;25.20;44.30;;;;;;5070224;28;20411;-51
2022/06/15 11:10:34;;;;;;;6.10;3.13;;;25.20;45.20;;;;;;5065528;28;20482;-52
2022/06/15 11:13:33;;;;;;;5.32;3.25;;;25.30;44.80;;;;;;5068447;28;20278;-51
2022/06/15 11:19:16;;;;;;;4.38;3.08;;;25.40;45.20;;;;;;5066097;28;20108;-49
2022/06/15 11:21:54;;;;;;;5.22;3.25;;;25.40;44.90;;;;;;5067190;28;20492;-53
2022/06/15 11:24:47;;;;;;;6.68;2.83;;;25.60;44.30;;;;;;5067257;28;20094;-51
2022/06/15 11:27:29;;;;;;;5.03;2.58;;;25.60;44.40;;;;;;5063871;28;20644;-52
2022/06/15 11:30:08;;;;;;;6.20;3.08;;;25.60;43.70;;;;;;5064574;28;20063;-53
2022/06/15 11:32:43;;;;;;;3.65;2.78;;;25.70;43.20;;;;;;5065710;28;20040;-51
2022/06/15 11:35:13;;;;;;;5.22;3.55;;;25.80;43.50;;;;;;5068270;28;20045;-53
2022/06/15 11:37:51;;;;;;;3.92;2.97;;;25.80;42.00;;;;;;5066736;28;20071;-53
2022/06/15 11:40:21;;;;;;;5.72;3.00;;;25.90;41.80;;;;;;5068314;28;20036;-51
2022/06/15 11:42:53;;;;;;;3.97;3.10;;;25.90;42.40;;;;;;5069198;28;20056;-55
2022/06/15 11:45:33;;;;;;;3.70;2.30;;;26.00;41.60;;;;;;5068026;28;20044;-53
2022/06/15 11:48:09;;;;;;;4.80;2.63;;;26.00;43.10;;;;;;5046008;28;20106;-54
2022/06/15 11:51:03;;;;;;;5.13;3.13;;;26.00;42.00;;;;;;5069745;28;20446;-49
2022/06/15 11:53:36;;;;;;;6.43;3.30;;;26.10;41.30;;;;;;5047770;28;20056;-50
2022/06/15 11:56:13;;;;;;;4.55;2.63;;;26.20;41.60;;;;;;5049086;28;20504;-51
2022/06/15 11:58:40;;;;;;;2.40;1.70;;;26.20;41.40;;;;;;5068004;28;20495;-49
2022/06/15 12:01:12;;;;;;;5.05;2.28;;;26.30;41.90;;;;;;5069161;28;20040;-56
2022/06/15 12:03:57;;;;;;;5.65;2.42;;;26.30;42.60;;;;;;5069069;28;20454;-57
2022/06/15 12:06:56;;;;;;;5.53;2.67;;;26.40;41.60;;;;;;5062477;28;20052;-53
2022/06/15 12:09:51;;;;;;;2.90;2.28;;;26.50;41.80;;;;;;5072799;28;20074;-53
2022/06/15 12:12:53;;;;;;;4.68;2.80;;;26.60;41.90;;;;;;5072645;28;20055;-51
2022/06/15 12:15:45;;;;;;;2.88;2.50;;;26.70;41.90;;;;;;5055637;28;20450;-53
2022/06/15 12:18:42;;;;;;;3.65;2.17;;;26.80;40.90;;;;;;5066845;28;20154;-52
2022/06/15 12:21:32;;;;;;;3.95;2.40;;;27.00;42.00;;;;;;5067325;28;20048;-56
2022/06/15 12:24:10;;;;;;;2.65;2.00;;;27.10;41.20;;;;;;5066944;28;20063;-56
2022/06/15 12:27:01;;;;;;;4.78;2.40;;;27.20;40.30;;;;;;5068076;28;20059;-52
2022/06/15 12:29:41;;;;;;;3.80;2.67;;;27.30;40.30;;;;;;5063148;28;20075;-50
2022/06/15 12:32:59;;;;;;;5.72;2.10;;;27.40;39.90;;;;;;5070550;28;20041;-52
2022/06/15 12:35:39;;;;;;;3.38;2.63;;;27.50;40.30;;;;;;5069848;28;20040;-51
2022/06/15 12:38:36;;;;;;;3.83;2.15;;;27.60;40.50;;;;;;5056362;28;20076;-50
2022/06/15 12:44:02;;;;;;;4.43;2.35;;;27.70;39.40;;;;;;5064292;28;20504;-50
2022/06/15 12:46:29;;;;;;;4.00;2.22;;;27.80;38.90;;;;;;5070777;28;20131;-50
2022/06/15 12:49:18;;;;;;;7.40;2.40;;;27.90;38.80;;;;;;5048355;28;20049;-50
2022/06/15 12:52:18;;;;;;;4.32;2.28;;;28.00;38.80;;;;;;5062252;28;20115;-52
2022/06/15 12:55:06;;;;;;;3.42;2.08;;;28.00;38.10;;;;;;5009400;28;20958;-52
2022/06/15 12:57:44;;;;;;;2.88;2.50;;;28.10;38.40;;;;;;5062768;28;20037;-51
2022/06/15 13:00:37;;;;;;;3.97;2.28;;;28.20;37.80;;;;;;5035635;28;20052;-53
2022/06/15 13:03:18;;;;;;;2.92;2.20;;;28.30;37.70;;;;;;5054161;28;20072;-51
2022/06/15 13:05:44;;;;;;;2.63;1.83;;;28.40;37.40;;;;;;5066161;28;20040;-52
2022/06/15 13:08:11;;;;;;;1.67;1.58;;;28.50;38.40;;;;;;5052228;28;20919;-51
2022/06/15 13:11:01;;;;;;;3.80;2.45;;;28.60;38.40;;;;;;5059718;28;20037;-50
2022/06/15 13:13:32;;;;;;;2.80;1.95;;;28.80;37.90;;;;;;5057626;28;20046;-51
2022/06/15 13:16:27;;;;;;;4.50;2.28;;;29.00;37.80;;;;;;5069129;28;20052;-51
2022/06/15 13:18:57;;;;;;;3.03;1.90;;;29.10;36.90;;;;;;5057891;28;20781;-54
2022/06/15 13:21:27;;;;;;;3.60;2.33;;;29.30;36.90;;;;;;5062874;28;20643;-51
2022/06/15 13:23:59;;;;;;;3.90;2.20;;;29.40;36.20;;;;;;5060417;28;20041;-49
2022/06/15 13:27:00;;;;;;;2.15;1.75;;;29.60;35.80;;;;;;5067686;28;20070;-53
2022/06/15 13:29:31;;;;;;;3.20;1.70;;;29.90;35.80;;;;;;5056284;28;20106;-50
2022/06/15 13:32:05;;;;;;;2.70;1.80;;;30.30;35.10;;;;;;5063994;28;20125;-49
2022/06/15 13:34:35;;;;;;;3.40;1.80;;;30.90;35.60;;;;;;5059235;28;20377;-51
2022/06/15 13:37:15;;;;;;;2.17;1.45;;;31.70;35.80;;;;;;5064828;28;20155;-50
2022/06/15 13:39:41;;;;;;;2.35;1.42;;;32.70;35.40;;;;;;5043214;28;20063;-50
2022/06/15 13:42:41;;;;;;;3.17;1.38;;;33.80;35.20;;;;;;5069520;28;20098;-54
2022/06/15 13:45:18;;;;;;;4.20;1.20;;;35.10;34.10;;;;;;5037038;28;20182;-52
2022/06/15 13:47:54;;;;;;;4.95;1.40;;;36.60;32.80;;;;;;5053888;28;20837;-52
2022/06/15 13:50:38;;;;;;;1.63;1.27;;;38.00;30.50;;;;;;5066008;28;20044;-52